Terminal Aerodrome Forecast
Issued by NWS

Home | Current Version | Previous Version | Text Only | Print | Product List | Glossary On
Versions: 1 2 3 4 5 6 7 8 9 10 11 12 13
488
FTUS43 KPAH 211120
TAFCGI
TAF
KCGI 211120Z 2112/2212 34006KT P6SM SCT015 BKN070
      TEMPO 2112/2115 BKN015
     FM211500 36010KT P6SM SCT015 BKN025
     FM220100 35004KT P6SM SCT030
     FM220500 00000KT P6SM SKC=

USA.gov is the U.S. government's official web portal to all federal, state and local government web resources and services.